sensor_id;sensor_type;location;lat;lon;timestamp;P1;durP1;ratioP1;P2;durP2;ratioP2
70535;SDS011;58089;48.752;11.338;2022-07-06T00:00:55;4.70;;;1.60;;
70535;SDS011;58089;48.752;11.338;2022-07-06T00:03:20;5.00;;;1.30;;
70535;SDS011;58089;48.752;11.338;2022-07-06T00:05:45;5.27;;;1.63;;
70535;SDS011;58089;48.752;11.338;2022-07-06T00:08:10;3.90;;;1.33;;
70535;SDS011;58089;48.752;11.338;2022-07-06T00:10:36;4.27;;;1.37;;
70535;SDS011;58089;48.752;11.338;2022-07-06T00:13:01;6.33;;;1.50;;
70535;SDS011;58089;48.752;11.338;2022-07-06T00:15:26;4.60;;;1.30;;
70535;SDS011;58089;48.752;11.338;2022-07-06T00:17:51;5.00;;;1.40;;
70535;SDS011;58089;48.752;11.338;2022-07-06T00:20:16;4.27;;;1.40;;
70535;SDS011;58089;48.752;11.338;2022-07-06T00:22:42;4.27;;;1.40;;
70535;SDS011;58089;48.752;11.338;2022-07-06T00:25:07;4.33;;;1.80;;
70535;SDS011;58089;48.752;11.338;2022-07-06T00:27:33;4.30;;;1.20;;
70535;SDS011;58089;48.752;11.338;2022-07-06T00:29:58;7.73;;;1.70;;
70535;SDS011;58089;48.752;11.338;2022-07-06T00:32:23;6.60;;;1.47;;
70535;SDS011;58089;48.752;11.338;2022-07-06T00:34:50;4.00;;;1.33;;
70535;SDS011;58089;48.752;11.338;2022-07-06T00:37:15;4.73;;;1.40;;
70535;SDS011;58089;48.752;11.338;2022-07-06T00:39:40;5.18;;;1.50;;
70535;SDS011;58089;48.752;11.338;2022-07-06T00:42:05;4.80;;;1.87;;
70535;SDS011;58089;48.752;11.338;2022-07-06T00:44:31;5.30;;;1.63;;
70535;SDS011;58089;48.752;11.338;2022-07-06T00:46:58;8.13;;;1.40;;
70535;SDS011;58089;48.752;11.338;2022-07-06T00:49:23;5.60;;;1.53;;
70535;SDS011;58089;48.752;11.338;2022-07-06T00:52:07;4.10;;;1.67;;
70535;SDS011;58089;48.752;11.338;2022-07-06T00:54:32;3.93;;;1.47;;
70535;SDS011;58089;48.752;11.338;2022-07-06T00:56:57;4.90;;;1.90;;
70535;SDS011;58089;48.752;11.338;2022-07-06T00:59:23;4.82;;;1.70;;
70535;SDS011;58089;48.752;11.338;2022-07-06T01:01:48;4.50;;;1.50;;
70535;SDS011;58089;48.752;11.338;2022-07-06T01:04:14;6.30;;;2.00;;
70535;SDS011;58089;48.752;11.338;2022-07-06T01:06:39;6.70;;;1.97;;
70535;SDS011;58089;48.752;11.338;2022-07-06T01:09:04;4.55;;;1.90;;
70535;SDS011;58089;48.752;11.338;2022-07-06T01:11:30;4.63;;;1.63;;
70535;SDS011;58089;48.752;11.338;2022-07-06T01:13:55;4.27;;;1.53;;
70535;SDS011;58089;48.752;11.338;2022-07-06T01:16:21;5.72;;;1.70;;
70535;SDS011;58089;48.752;11.338;2022-07-06T01:18:46;4.63;;;1.60;;
70535;SDS011;58089;48.752;11.338;2022-07-06T01:21:12;4.13;;;1.60;;
70535;SDS011;58089;48.752;11.338;2022-07-06T01:23:39;5.45;;;1.73;;
70535;SDS011;58089;48.752;11.338;2022-07-06T01:26:04;3.95;;;1.30;;
70535;SDS011;58089;48.752;11.338;2022-07-06T01:28:29;5.20;;;1.70;;
70535;SDS011;58089;48.752;11.338;2022-07-06T01:30:55;4.10;;;1.63;;
70535;SDS011;58089;48.752;11.338;2022-07-06T01:33:20;4.40;;;1.60;;
70535;SDS011;58089;48.752;11.338;2022-07-06T01:35:45;4.57;;;1.70;;
70535;SDS011;58089;48.752;11.338;2022-07-06T01:38:11;5.68;;;1.83;;
70535;SDS011;58089;48.752;11.338;2022-07-06T01:40:36;4.60;;;1.63;;
70535;SDS011;58089;48.752;11.338;2022-07-06T01:43:01;4.30;;;1.70;;
70535;SDS011;58089;48.752;11.338;2022-07-06T01:45:26;3.77;;;1.67;;
70535;SDS011;58089;48.752;11.338;2022-07-06T01:47:51;6.43;;;1.70;;
70535;SDS011;58089;48.752;11.338;2022-07-06T01:50:17;5.50;;;1.90;;
70535;SDS011;58089;48.752;11.338;2022-07-06T01:52:42;4.97;;;2.00;;
70535;SDS011;58089;48.752;11.338;2022-07-06T01:55:07;4.63;;;1.60;;
70535;SDS011;58089;48.752;11.338;2022-07-06T01:57:32;7.90;;;1.77;;
70535;SDS011;58089;48.752;11.338;2022-07-06T01:59:57;4.43;;;1.90;;
70535;SDS011;58089;48.752;11.338;2022-07-06T02:02:23;5.00;;;2.30;;
70535;SDS011;58089;48.752;11.338;2022-07-06T02:04:48;6.40;;;2.00;;
70535;SDS011;58089;48.752;11.338;2022-07-06T02:07:13;6.17;;;1.83;;
70535;SDS011;58089;48.752;11.338;2022-07-06T02:09:38;4.37;;;2.00;;
70535;SDS011;58089;48.752;11.338;2022-07-06T02:12:04;10.53;;;2.20;;
70535;SDS011;58089;48.752;11.338;2022-07-06T02:14:29;6.73;;;2.30;;
70535;SDS011;58089;48.752;11.338;2022-07-06T02:16:54;6.15;;;2.05;;
70535;SDS011;58089;48.752;11.338;2022-07-06T02:19:19;7.40;;;2.23;;
70535;SDS011;58089;48.752;11.338;2022-07-06T02:21:44;5.63;;;2.17;;
70535;SDS011;58089;48.752;11.338;2022-07-06T02:24:09;7.00;;;2.20;;
70535;SDS011;58089;48.752;11.338;2022-07-06T02:26:35;6.47;;;2.67;;
70535;SDS011;58089;48.752;11.338;2022-07-06T02:29:00;4.60;;;2.00;;
70535;SDS011;58089;48.752;11.338;2022-07-06T02:31:25;7.13;;;2.40;;
70535;SDS011;58089;48.752;11.338;2022-07-06T02:33:50;4.43;;;1.90;;
70535;SDS011;58089;48.752;11.338;2022-07-06T02:36:15;4.40;;;1.80;;
70535;SDS011;58089;48.752;11.338;2022-07-06T02:38:40;5.27;;;2.10;;
70535;SDS011;58089;48.752;11.338;2022-07-06T02:41:06;6.10;;;2.50;;
70535;SDS011;58089;48.752;11.338;2022-07-06T02:43:31;5.17;;;2.50;;
70535;SDS011;58089;48.752;11.338;2022-07-06T02:45:56;5.73;;;2.30;;
70535;SDS011;58089;48.752;11.338;2022-07-06T02:48:21;6.33;;;2.10;;
70535;SDS011;58089;48.752;11.338;2022-07-06T02:50:46;6.60;;;2.30;;
70535;SDS011;58089;48.752;11.338;2022-07-06T02:53:12;5.20;;;2.00;;
70535;SDS011;58089;48.752;11.338;2022-07-06T02:55:37;6.33;;;2.50;;
70535;SDS011;58089;48.752;11.338;2022-07-06T02:58:02;4.67;;;2.27;;
70535;SDS011;58089;48.752;11.338;2022-07-06T03:00:27;6.30;;;2.37;;
70535;SDS011;58089;48.752;11.338;2022-07-06T03:02:52;5.00;;;2.37;;
70535;SDS011;58089;48.752;11.338;2022-07-06T03:05:18;5.33;;;2.60;;
70535;SDS011;58089;48.752;11.338;2022-07-06T03:07:43;5.60;;;2.30;;
70535;SDS011;58089;48.752;11.338;2022-07-06T03:10:08;5.60;;;2.37;;
70535;SDS011;58089;48.752;11.338;2022-07-06T03:12:33;5.20;;;2.30;;
70535;SDS011;58089;48.752;11.338;2022-07-06T03:14:58;4.30;;;1.90;;
70535;SDS011;58089;48.752;11.338;2022-07-06T03:17:23;5.00;;;2.00;;
70535;SDS011;58089;48.752;11.338;2022-07-06T03:19:49;4.90;;;2.00;;
70535;SDS011;58089;48.752;11.338;2022-07-06T03:22:14;6.50;;;2.33;;
70535;SDS011;58089;48.752;11.338;2022-07-06T03:24:39;4.73;;;2.30;;
70535;SDS011;58089;48.752;11.338;2022-07-06T03:27:04;5.23;;;2.40;;
70535;SDS011;58089;48.752;11.338;2022-07-06T03:29:30;4.80;;;2.60;;
70535;SDS011;58089;48.752;11.338;2022-07-06T03:31:55;6.73;;;2.37;;
70535;SDS011;58089;48.752;11.338;2022-07-06T03:34:20;5.43;;;2.20;;
70535;SDS011;58089;48.752;11.338;2022-07-06T03:36:46;4.70;;;2.40;;
70535;SDS011;58089;48.752;11.338;2022-07-06T03:39:11;8.70;;;2.80;;
70535;SDS011;58089;48.752;11.338;2022-07-06T03:41:36;5.43;;;2.87;;
70535;SDS011;58089;48.752;11.338;2022-07-06T03:44:01;5.40;;;2.80;;
70535;SDS011;58089;48.752;11.338;2022-07-06T03:46:27;8.30;;;2.80;;
70535;SDS011;58089;48.752;11.338;2022-07-06T03:48:52;5.05;;;2.55;;
70535;SDS011;58089;48.752;11.338;2022-07-06T03:51:18;6.30;;;2.80;;
70535;SDS011;58089;48.752;11.338;2022-07-06T03:53:43;6.13;;;3.47;;
70535;SDS011;58089;48.752;11.338;2022-07-06T03:56:08;5.03;;;2.77;;
70535;SDS011;58089;48.752;11.338;2022-07-06T03:58:52;7.88;;;3.30;;
70535;SDS011;58089;48.752;11.338;2022-07-06T04:01:17;7.40;;;3.33;;
70535;SDS011;58089;48.752;11.338;2022-07-06T04:03:42;6.27;;;3.13;;
70535;SDS011;58089;48.752;11.338;2022-07-06T04:06:07;5.63;;;3.20;;
70535;SDS011;58089;48.752;11.338;2022-07-06T04:08:32;7.17;;;3.20;;
70535;SDS011;58089;48.752;11.338;2022-07-06T04:10:58;6.43;;;3.37;;
70535;SDS011;58089;48.752;11.338;2022-07-06T04:13:23;6.67;;;3.13;;
70535;SDS011;58089;48.752;11.338;2022-07-06T04:15:50;8.32;;;3.45;;
70535;SDS011;58089;48.752;11.338;2022-07-06T04:18:15;7.50;;;3.23;;
70535;SDS011;58089;48.752;11.338;2022-07-06T04:20:40;6.47;;;3.50;;
70535;SDS011;58089;48.752;11.338;2022-07-06T04:23:05;5.73;;;3.40;;
70535;SDS011;58089;48.752;11.338;2022-07-06T04:25:30;6.60;;;3.23;;
70535;SDS011;58089;48.752;11.338;2022-07-06T04:27:56;6.63;;;3.47;;
70535;SDS011;58089;48.752;11.338;2022-07-06T04:30:21;8.37;;;3.17;;
70535;SDS011;58089;48.752;11.338;2022-07-06T04:32:46;7.47;;;3.30;;
70535;SDS011;58089;48.752;11.338;2022-07-06T04:35:11;5.57;;;3.03;;
70535;SDS011;58089;48.752;11.338;2022-07-06T04:37:36;8.83;;;3.43;;
70535;SDS011;58089;48.752;11.338;2022-07-06T04:40:02;7.13;;;3.77;;
70535;SDS011;58089;48.752;11.338;2022-07-06T04:42:27;6.20;;;3.60;;
70535;SDS011;58089;48.752;11.338;2022-07-06T04:44:53;9.03;;;3.57;;
70535;SDS011;58089;48.752;11.338;2022-07-06T04:47:18;9.33;;;3.50;;
70535;SDS011;58089;48.752;11.338;2022-07-06T04:49:43;8.67;;;4.00;;
70535;SDS011;58089;48.752;11.338;2022-07-06T04:52:08;8.20;;;3.75;;
70535;SDS011;58089;48.752;11.338;2022-07-06T04:54:33;8.25;;;3.90;;
70535;SDS011;58089;48.752;11.338;2022-07-06T04:56:58;7.10;;;3.93;;
70535;SDS011;58089;48.752;11.338;2022-07-06T04:59:24;6.10;;;3.97;;
70535;SDS011;58089;48.752;11.338;2022-07-06T05:01:49;8.33;;;4.00;;
70535;SDS011;58089;48.752;11.338;2022-07-06T05:04:14;8.10;;;4.40;;
70535;SDS011;58089;48.752;11.338;2022-07-06T05:06:39;10.93;;;3.93;;
70535;SDS011;58089;48.752;11.338;2022-07-06T05:09:05;7.67;;;3.70;;
70535;SDS011;58089;48.752;11.338;2022-07-06T05:11:30;6.80;;;3.57;;
70535;SDS011;58089;48.752;11.338;2022-07-06T05:13:55;5.77;;;3.30;;
70535;SDS011;58089;48.752;11.338;2022-07-06T05:16:20;6.87;;;3.93;;
70535;SDS011;58089;48.752;11.338;2022-07-06T05:18:46;8.67;;;3.90;;
70535;SDS011;58089;48.752;11.338;2022-07-06T05:21:11;7.57;;;3.90;;
70535;SDS011;58089;48.752;11.338;2022-07-06T05:23:36;6.87;;;3.70;;
70535;SDS011;58089;48.752;11.338;2022-07-06T05:26:01;7.87;;;4.10;;
70535;SDS011;58089;48.752;11.338;2022-07-06T05:28:27;7.57;;;3.73;;
70535;SDS011;58089;48.752;11.338;2022-07-06T05:30:52;6.75;;;3.75;;
70535;SDS011;58089;48.752;11.338;2022-07-06T05:33:17;10.00;;;4.00;;
70535;SDS011;58089;48.752;11.338;2022-07-06T05:35:42;8.65;;;4.00;;
70535;SDS011;58089;48.752;11.338;2022-07-06T05:38:08;9.60;;;3.80;;
70535;SDS011;58089;48.752;11.338;2022-07-06T05:40:33;6.10;;;3.53;;
70535;SDS011;58089;48.752;11.338;2022-07-06T05:42:58;6.57;;;3.10;;
70535;SDS011;58089;48.752;11.338;2022-07-06T05:45:23;10.87;;;3.77;;
70535;SDS011;58089;48.752;11.338;2022-07-06T05:47:49;8.00;;;3.13;;
70535;SDS011;58089;48.752;11.338;2022-07-06T05:50:32;7.13;;;3.50;;
70535;SDS011;58089;48.752;11.338;2022-07-06T05:53:01;7.30;;;2.97;;
70535;SDS011;58089;48.752;11.338;2022-07-06T05:55:26;7.57;;;3.10;;
70535;SDS011;58089;48.752;11.338;2022-07-06T05:57:52;7.57;;;3.28;;
70535;SDS011;58089;48.752;11.338;2022-07-06T06:00:19;8.40;;;2.78;;
70535;SDS011;58089;48.752;11.338;2022-07-06T06:02:45;5.57;;;2.60;;
70535;SDS011;58089;48.752;11.338;2022-07-06T06:05:10;7.93;;;2.80;;
70535;SDS011;58089;48.752;11.338;2022-07-06T06:07:39;7.37;;;2.83;;
70535;SDS011;58089;48.752;11.338;2022-07-06T06:10:04;9.57;;;2.50;;
70535;SDS011;58089;48.752;11.338;2022-07-06T06:12:30;7.57;;;2.73;;
70535;SDS011;58089;48.752;11.338;2022-07-06T06:14:55;9.30;;;2.70;;
70535;SDS011;58089;48.752;11.338;2022-07-06T06:17:20;6.03;;;2.40;;
70535;SDS011;58089;48.752;11.338;2022-07-06T06:19:45;7.43;;;2.40;;
70535;SDS011;58089;48.752;11.338;2022-07-06T06:22:11;5.43;;;2.50;;
70535;SDS011;58089;48.752;11.338;2022-07-06T06:24:36;7.60;;;2.45;;
70535;SDS011;58089;48.752;11.338;2022-07-06T06:27:01;9.20;;;2.70;;
70535;SDS011;58089;48.752;11.338;2022-07-06T06:29:26;5.77;;;2.47;;
70535;SDS011;58089;48.752;11.338;2022-07-06T06:31:51;5.53;;;2.77;;
70535;SDS011;58089;48.752;11.338;2022-07-06T06:34:17;6.50;;;2.40;;
70535;SDS011;58089;48.752;11.338;2022-07-06T06:36:42;6.23;;;2.40;;
70535;SDS011;58089;48.752;11.338;2022-07-06T06:39:07;8.13;;;2.60;;
70535;SDS011;58089;48.752;11.338;2022-07-06T06:41:32;5.90;;;2.50;;
70535;SDS011;58089;48.752;11.338;2022-07-06T06:43:57;6.40;;;2.60;;
70535;SDS011;58089;48.752;11.338;2022-07-06T06:46:23;5.60;;;2.30;;
70535;SDS011;58089;48.752;11.338;2022-07-06T06:48:48;5.17;;;2.30;;
70535;SDS011;58089;48.752;11.338;2022-07-06T06:51:13;7.47;;;2.27;;
70535;SDS011;58089;48.752;11.338;2022-07-06T06:53:38;5.73;;;2.10;;
70535;SDS011;58089;48.752;11.338;2022-07-06T06:56:03;5.60;;;2.27;;
70535;SDS011;58089;48.752;11.338;2022-07-06T06:58:29;4.77;;;2.37;;
70535;SDS011;58089;48.752;11.338;2022-07-06T07:00:54;6.00;;;2.63;;
70535;SDS011;58089;48.752;11.338;2022-07-06T07:03:20;6.13;;;2.70;;
70535;SDS011;58089;48.752;11.338;2022-07-06T07:05:45;5.70;;;2.30;;
70535;SDS011;58089;48.752;11.338;2022-07-06T07:08:10;4.60;;;2.00;;
70535;SDS011;58089;48.752;11.338;2022-07-06T07:10:35;4.77;;;2.30;;
70535;SDS011;58089;48.752;11.338;2022-07-06T07:13:01;6.17;;;2.60;;
70535;SDS011;58089;48.752;11.338;2022-07-06T07:15:26;5.80;;;2.03;;
70535;SDS011;58089;48.752;11.338;2022-07-06T07:17:51;5.00;;;2.33;;
70535;SDS011;58089;48.752;11.338;2022-07-06T07:20:17;4.90;;;2.00;;
70535;SDS011;58089;48.752;11.338;2022-07-06T07:22:42;4.97;;;2.40;;
70535;SDS011;58089;48.752;11.338;2022-07-06T07:25:07;7.37;;;2.70;;
70535;SDS011;58089;48.752;11.338;2022-07-06T07:27:33;5.17;;;2.30;;
70535;SDS011;58089;48.752;11.338;2022-07-06T07:29:58;6.57;;;1.90;;
70535;SDS011;58089;48.752;11.338;2022-07-06T07:32:23;5.23;;;2.00;;
70535;SDS011;58089;48.752;11.338;2022-07-06T07:34:48;10.97;;;2.77;;
70535;SDS011;58089;48.752;11.338;2022-07-06T07:37:14;5.93;;;2.13;;
70535;SDS011;58089;48.752;11.338;2022-07-06T07:39:39;7.50;;;2.27;;
70535;SDS011;58089;48.752;11.338;2022-07-06T07:42:04;8.50;;;2.10;;
70535;SDS011;58089;48.752;11.338;2022-07-06T07:44:29;7.37;;;2.20;;
70535;SDS011;58089;48.752;11.338;2022-07-06T07:46:55;5.77;;;2.27;;
70535;SDS011;58089;48.752;11.338;2022-07-06T07:49:20;6.23;;;2.00;;
70535;SDS011;58089;48.752;11.338;2022-07-06T07:51:46;5.22;;;2.00;;
70535;SDS011;58089;48.752;11.338;2022-07-06T07:54:11;6.77;;;2.43;;
70535;SDS011;58089;48.752;11.338;2022-07-06T07:56:37;6.13;;;2.27;;
70535;SDS011;58089;48.752;11.338;2022-07-06T07:59:02;5.57;;;2.17;;
70535;SDS011;58089;48.752;11.338;2022-07-06T08:01:27;5.73;;;2.10;;
70535;SDS011;58089;48.752;11.338;2022-07-06T08:03:52;7.30;;;2.33;;
70535;SDS011;58089;48.752;11.338;2022-07-06T08:06:17;8.60;;;2.47;;
70535;SDS011;58089;48.752;11.338;2022-07-06T08:08:42;6.17;;;2.33;;
70535;SDS011;58089;48.752;11.338;2022-07-06T08:11:08;9.43;;;2.60;;
70535;SDS011;58089;48.752;11.338;2022-07-06T08:13:33;6.87;;;2.47;;
70535;SDS011;58089;48.752;11.338;2022-07-06T08:15:58;7.97;;;2.30;;
70535;SDS011;58089;48.752;11.338;2022-07-06T08:18:23;5.10;;;2.10;;
70535;SDS011;58089;48.752;11.338;2022-07-06T08:20:49;6.67;;;2.70;;
70535;SDS011;58089;48.752;11.338;2022-07-06T08:23:14;5.55;;;2.30;;
70535;SDS011;58089;48.752;11.338;2022-07-06T08:25:39;5.43;;;2.30;;
70535;SDS011;58089;48.752;11.338;2022-07-06T08:28:04;5.20;;;2.50;;
70535;SDS011;58089;48.752;11.338;2022-07-06T08:30:29;6.73;;;2.30;;
70535;SDS011;58089;48.752;11.338;2022-07-06T08:32:56;9.17;;;2.40;;
70535;SDS011;58089;48.752;11.338;2022-07-06T08:35:21;6.45;;;2.60;;
70535;SDS011;58089;48.752;11.338;2022-07-06T08:37:46;7.13;;;2.37;;
70535;SDS011;58089;48.752;11.338;2022-07-06T08:40:12;5.43;;;2.10;;
70535;SDS011;58089;48.752;11.338;2022-07-06T08:42:37;6.77;;;2.17;;
70535;SDS011;58089;48.752;11.338;2022-07-06T08:45:06;7.37;;;2.37;;
70535;SDS011;58089;48.752;11.338;2022-07-06T08:47:31;7.90;;;2.20;;
70535;SDS011;58089;48.752;11.338;2022-07-06T08:49:57;5.47;;;1.97;;
70535;SDS011;58089;48.752;11.338;2022-07-06T08:52:23;6.10;;;2.30;;
70535;SDS011;58089;48.752;11.338;2022-07-06T08:54:48;5.43;;;1.73;;
70535;SDS011;58089;48.752;11.338;2022-07-06T08:57:14;6.50;;;2.17;;
70535;SDS011;58089;48.752;11.338;2022-07-06T08:59:39;5.23;;;2.03;;
70535;SDS011;58089;48.752;11.338;2022-07-06T09:02:04;5.37;;;1.93;;
70535;SDS011;58089;48.752;11.338;2022-07-06T09:04:30;5.97;;;1.80;;
70535;SDS011;58089;48.752;11.338;2022-07-06T09:06:57;5.80;;;2.05;;
70535;SDS011;58089;48.752;11.338;2022-07-06T09:09:23;5.97;;;1.90;;
70535;SDS011;58089;48.752;11.338;2022-07-06T09:11:48;5.30;;;1.83;;
70535;SDS011;58089;48.752;11.338;2022-07-06T09:14:13;4.93;;;1.93;;
70535;SDS011;58089;48.752;11.338;2022-07-06T09:16:39;5.57;;;1.90;;
70535;SDS011;58089;48.752;11.338;2022-07-06T09:19:04;5.60;;;1.63;;
70535;SDS011;58089;48.752;11.338;2022-07-06T09:21:30;5.25;;;1.83;;
70535;SDS011;58089;48.752;11.338;2022-07-06T09:23:57;4.87;;;1.50;;
70535;SDS011;58089;48.752;11.338;2022-07-06T09:26:23;4.57;;;1.80;;
70535;SDS011;58089;48.752;11.338;2022-07-06T09:28:48;6.47;;;1.93;;
70535;SDS011;58089;48.752;11.338;2022-07-06T09:31:13;6.97;;;1.92;;
70535;SDS011;58089;48.752;11.338;2022-07-06T09:33:38;3.73;;;1.40;;
70535;SDS011;58089;48.752;11.338;2022-07-06T09:36:04;4.33;;;1.50;;
70535;SDS011;58089;48.752;11.338;2022-07-06T09:38:30;4.72;;;1.45;;
70535;SDS011;58089;48.752;11.338;2022-07-06T09:40:56;6.50;;;1.90;;
70535;SDS011;58089;48.752;11.338;2022-07-06T09:43:22;4.50;;;1.63;;
70535;SDS011;58089;48.752;11.338;2022-07-06T09:45:54;6.07;;;1.60;;
70535;SDS011;58089;48.752;11.338;2022-07-06T09:48:26;5.40;;;1.50;;
70535;SDS011;58089;48.752;11.338;2022-07-06T09:53:18;5.00;;;1.70;;
70535;SDS011;58089;48.752;11.338;2022-07-06T09:55:45;6.18;;;1.70;;
70535;SDS011;58089;48.752;11.338;2022-07-06T09:58:10;4.85;;;1.40;;
70535;SDS011;58089;48.752;11.338;2022-07-06T10:00:36;4.33;;;1.33;;
70535;SDS011;58089;48.752;11.338;2022-07-06T10:03:01;4.50;;;1.40;;
70535;SDS011;58089;48.752;11.338;2022-07-06T10:05:27;4.17;;;1.40;;
70535;SDS011;58089;48.752;11.338;2022-07-06T10:07:55;4.50;;;1.50;;
70535;SDS011;58089;48.752;11.338;2022-07-06T10:10:21;7.93;;;2.47;;
70535;SDS011;58089;48.752;11.338;2022-07-06T10:12:48;4.82;;;1.40;;
70535;SDS011;58089;48.752;11.338;2022-07-06T10:15:15;5.40;;;1.50;;
70535;SDS011;58089;48.752;11.338;2022-07-06T10:17:41;5.05;;;1.40;;
70535;SDS011;58089;48.752;11.338;2022-07-06T10:20:07;7.97;;;1.50;;
70535;SDS011;58089;48.752;11.338;2022-07-06T10:22:34;4.95;;;1.15;;
70535;SDS011;58089;48.752;11.338;2022-07-06T10:24:59;3.90;;;1.42;;
70535;SDS011;58089;48.752;11.338;2022-07-06T10:27:25;7.13;;;1.70;;
70535;SDS011;58089;48.752;11.338;2022-07-06T10:29:51;4.85;;;1.40;;
70535;SDS011;58089;48.752;11.338;2022-07-06T10:32:19;5.47;;;1.30;;
70535;SDS011;58089;48.752;11.338;2022-07-06T10:34:45;7.20;;;1.70;;
70535;SDS011;58089;48.752;11.338;2022-07-06T10:37:21;6.10;;;1.50;;
70535;SDS011;58089;48.752;11.338;2022-07-06T10:39:47;6.10;;;1.83;;
70535;SDS011;58089;48.752;11.338;2022-07-06T10:45:06;4.05;;;1.50;;
70535;SDS011;58089;48.752;11.338;2022-07-06T10:47:32;4.73;;;1.30;;
70535;SDS011;58089;48.752;11.338;2022-07-06T10:50:01;5.43;;;1.47;;
70535;SDS011;58089;48.752;11.338;2022-07-06T10:57:57;4.70;;;1.30;;
70535;SDS011;58089;48.752;11.338;2022-07-06T11:00:23;4.30;;;1.30;;
70535;SDS011;58089;48.752;11.338;2022-07-06T11:02:48;3.77;;;1.30;;
70535;SDS011;58089;48.752;11.338;2022-07-06T11:07:57;5.17;;;1.50;;
70535;SDS011;58089;48.752;11.338;2022-07-06T11:10:25;5.10;;;1.50;;
70535;SDS011;58089;48.752;11.338;2022-07-06T11:12:58;4.60;;;1.30;;
70535;SDS011;58089;48.752;11.338;2022-07-06T11:18:10;5.25;;;1.25;;
70535;SDS011;58089;48.752;11.338;2022-07-06T11:20:36;4.30;;;1.33;;
70535;SDS011;58089;48.752;11.338;2022-07-06T11:23:01;4.13;;;1.40;;
70535;SDS011;58089;48.752;11.338;2022-07-06T11:25:26;4.10;;;1.30;;
70535;SDS011;58089;48.752;11.338;2022-07-06T11:27:52;5.50;;;1.40;;
70535;SDS011;58089;48.752;11.338;2022-07-06T11:30:17;4.70;;;1.30;;
70535;SDS011;58089;48.752;11.338;2022-07-06T11:32:42;3.60;;;1.30;;
70535;SDS011;58089;48.752;11.338;2022-07-06T11:35:07;6.63;;;1.60;;
70535;SDS011;58089;48.752;11.338;2022-07-06T11:37:32;4.47;;;1.20;;
70535;SDS011;58089;48.752;11.338;2022-07-06T11:39:58;3.97;;;1.20;;
70535;SDS011;58089;48.752;11.338;2022-07-06T11:42:31;5.75;;;1.30;;
70535;SDS011;58089;48.752;11.338;2022-07-06T11:44:56;4.43;;;1.30;;
70535;SDS011;58089;48.752;11.338;2022-07-06T11:47:21;4.63;;;1.30;;
70535;SDS011;58089;48.752;11.338;2022-07-06T11:49:55;4.75;;;1.48;;
70535;SDS011;58089;48.752;11.338;2022-07-06T11:52:20;4.20;;;1.30;;
70535;SDS011;58089;48.752;11.338;2022-07-06T11:54:48;4.17;;;1.30;;
70535;SDS011;58089;48.752;11.338;2022-07-06T11:57:13;5.93;;;1.30;;
70535;SDS011;58089;48.752;11.338;2022-07-06T11:59:39;4.27;;;1.10;;
70535;SDS011;58089;48.752;11.338;2022-07-06T12:04:30;3.50;;;1.10;;
70535;SDS011;58089;48.752;11.338;2022-07-06T12:06:59;5.00;;;1.27;;
70535;SDS011;58089;48.752;11.338;2022-07-06T12:09:25;3.85;;;1.10;;
70535;SDS011;58089;48.752;11.338;2022-07-06T12:11:50;4.72;;;1.20;;
70535;SDS011;58089;48.752;11.338;2022-07-06T12:14:16;5.00;;;1.27;;
70535;SDS011;58089;48.752;11.338;2022-07-06T12:16:42;5.07;;;1.42;;
70535;SDS011;58089;48.752;11.338;2022-07-06T12:19:07;5.63;;;1.43;;
70535;SDS011;58089;48.752;11.338;2022-07-06T12:21:33;4.10;;;1.40;;
70535;SDS011;58089;48.752;11.338;2022-07-06T12:23:59;4.32;;;1.35;;
70535;SDS011;58089;48.752;11.338;2022-07-06T12:26:25;6.13;;;1.70;;
70535;SDS011;58089;48.752;11.338;2022-07-06T12:29:01;5.45;;;1.40;;
70535;SDS011;58089;48.752;11.338;2022-07-06T12:31:36;4.20;;;1.50;;
70535;SDS011;58089;48.752;11.338;2022-07-06T12:34:02;3.72;;;1.10;;
70535;SDS011;58089;48.752;11.338;2022-07-06T12:36:27;4.68;;;1.33;;
70535;SDS011;58089;48.752;11.338;2022-07-06T12:38:53;4.60;;;1.57;;
70535;SDS011;58089;48.752;11.338;2022-07-06T12:41:25;4.20;;;1.43;;
70535;SDS011;58089;48.752;11.338;2022-07-06T12:43:59;3.80;;;1.40;;
70535;SDS011;58089;48.752;11.338;2022-07-06T12:46:34;4.00;;;1.43;;
70535;SDS011;58089;48.752;11.338;2022-07-06T12:49:01;4.50;;;1.48;;
70535;SDS011;58089;48.752;11.338;2022-07-06T12:51:27;5.22;;;1.30;;
70535;SDS011;58089;48.752;11.338;2022-07-06T12:53:52;5.23;;;1.50;;
70535;SDS011;58089;48.752;11.338;2022-07-06T12:56:17;5.53;;;1.40;;
70535;SDS011;58089;48.752;11.338;2022-07-06T12:58:56;4.53;;;1.08;;
70535;SDS011;58089;48.752;11.338;2022-07-06T13:01:21;3.65;;;1.02;;
70535;SDS011;58089;48.752;11.338;2022-07-06T13:03:46;4.17;;;1.30;;
70535;SDS011;58089;48.752;11.338;2022-07-06T13:06:11;4.73;;;1.30;;
70535;SDS011;58089;48.752;11.338;2022-07-06T13:08:37;4.40;;;1.30;;
70535;SDS011;58089;48.752;11.338;2022-07-06T13:11:02;5.60;;;1.50;;
70535;SDS011;58089;48.752;11.338;2022-07-06T13:13:27;4.77;;;1.43;;
70535;SDS011;58089;48.752;11.338;2022-07-06T13:15:52;3.73;;;1.20;;
70535;SDS011;58089;48.752;11.338;2022-07-06T13:18:18;4.33;;;1.30;;
70535;SDS011;58089;48.752;11.338;2022-07-06T13:20:44;5.20;;;1.30;;
70535;SDS011;58089;48.752;11.338;2022-07-06T13:23:09;4.00;;;1.30;;
70535;SDS011;58089;48.752;11.338;2022-07-06T13:25:34;4.17;;;1.40;;
70535;SDS011;58089;48.752;11.338;2022-07-06T13:28:00;5.00;;;1.10;;
70535;SDS011;58089;48.752;11.338;2022-07-06T13:30:25;4.10;;;1.37;;
70535;SDS011;58089;48.752;11.338;2022-07-06T13:32:50;3.77;;;1.27;;
70535;SDS011;58089;48.752;11.338;2022-07-06T13:35:15;5.00;;;1.17;;
70535;SDS011;58089;48.752;11.338;2022-07-06T13:37:42;3.73;;;1.30;;
70535;SDS011;58089;48.752;11.338;2022-07-06T13:40:07;4.05;;;1.08;;
70535;SDS011;58089;48.752;11.338;2022-07-06T13:42:33;4.47;;;1.23;;
70535;SDS011;58089;48.752;11.338;2022-07-06T13:44:58;3.50;;;1.00;;
70535;SDS011;58089;48.752;11.338;2022-07-06T13:47:23;3.80;;;1.07;;
70535;SDS011;58089;48.752;11.338;2022-07-06T13:49:48;4.97;;;1.40;;
70535;SDS011;58089;48.752;11.338;2022-07-06T13:52:14;4.15;;;1.10;;
70535;SDS011;58089;48.752;11.338;2022-07-06T13:54:40;4.97;;;1.20;;
70535;SDS011;58089;48.752;11.338;2022-07-06T13:57:05;3.50;;;1.00;;
70535;SDS011;58089;48.752;11.338;2022-07-06T13:59:31;4.68;;;1.38;;
70535;SDS011;58089;48.752;11.338;2022-07-06T14:01:57;5.73;;;1.40;;
70535;SDS011;58089;48.752;11.338;2022-07-06T14:04:22;5.57;;;1.30;;
70535;SDS011;58089;48.752;11.338;2022-07-06T14:06:47;3.63;;;1.02;;
70535;SDS011;58089;48.752;11.338;2022-07-06T14:09:13;5.10;;;1.20;;
70535;SDS011;58089;48.752;11.338;2022-07-06T14:11:38;5.60;;;1.50;;
70535;SDS011;58089;48.752;11.338;2022-07-06T14:14:03;4.53;;;1.37;;
70535;SDS011;58089;48.752;11.338;2022-07-06T14:16:31;4.00;;;1.20;;
70535;SDS011;58089;48.752;11.338;2022-07-06T14:18:58;4.88;;;1.40;;
70535;SDS011;58089;48.752;11.338;2022-07-06T14:21:24;6.30;;;1.40;;
70535;SDS011;58089;48.752;11.338;2022-07-06T14:23:49;4.72;;;1.30;;
70535;SDS011;58089;48.752;11.338;2022-07-06T14:26:14;5.43;;;1.20;;
70535;SDS011;58089;48.752;11.338;2022-07-06T14:28:39;4.33;;;1.50;;
70535;SDS011;58089;48.752;11.338;2022-07-06T14:31:04;5.20;;;1.60;;
70535;SDS011;58089;48.752;11.338;2022-07-06T14:33:30;4.70;;;1.30;;
70535;SDS011;58089;48.752;11.338;2022-07-06T14:35:55;4.03;;;1.30;;
70535;SDS011;58089;48.752;11.338;2022-07-06T14:38:21;4.07;;;1.20;;
70535;SDS011;58089;48.752;11.338;2022-07-06T14:40:46;4.30;;;1.40;;
70535;SDS011;58089;48.752;11.338;2022-07-06T14:43:13;3.95;;;1.30;;